Aviation Digital Data Service (ADDS)

Output produced by METARs form (1824 UTC 22 November 2017)
found at http://www.aviationweather.gov/adds/metars/
 
TJBQ 221720Z 2218/2318 06014KT P6SM VCSH SCT025 SCT050 
     FM222300 10005KT P6SM FEW035 FEW080 
     FM230300 12003KT P6SM SKC 
     FM231450 06012KT P6SM VCSH SCT025 SCT040
       
TJMZ 221720Z 2218/2318 26009KT P6SM VCSH SCT025 SCT040 
     FM222300 07004KT P6SM FEW035 FEW090 
     FM230300 00000KT P6SM SKC 
     FM231530 25007KT P6SM VCSH SCT025 BKN050 AMD NOT SKED
       
TJPS 221720Z 2218/2318 12012KT P6SM SCT030 
     FM222300 07004KT P6SM FEW030 
     FM230600 00000KT P6SM SKC 
     FM231450 12012KT P6SM SCT030 SCT050 AMD NOT SKED
       
TJSJ 221720Z 2218/2318 07012KT P6SM VCSH SCT025 SCT040 
     FM222300 10005KT P6SM FEW030 FEW060 
     FM230800 12003KT P6SM VCSH SCT025 SCT040 
     FM231400 07012KT P6SM SCT030 SCT070